Time;durP1;ratioP1;P1;durP2;ratioP2;P2;SDS_P1;SDS_P2;PMS_P1;PMS_P2;Temp;Humidity;BMP_temperature;BMP_pressure;BME280_temperature;BME280_humidity;BME280_pressure;Samples;Min_cycle;Max_cycle;Signal;HPM_P1;HPM_P2
2022/04/06 00:00:21;;;;;;;13.93;12.50;;;9.00;99.90;;;;;;5056645;28;20302;-69
2022/04/06 00:02:46;;;;;;;16.40;14.07;;;9.10;99.90;;;;;;5056541;28;20656;-68
2022/04/06 00:05:12;;;;;;;17.03;12.83;;;9.20;99.90;;;;;;5060578;28;20192;-68
2022/04/06 00:07:39;;;;;;;15.17;13.67;;;9.30;99.90;;;;;;5057850;28;20201;-70
2022/04/06 00:10:05;;;;;;;17.27;15.50;;;9.20;99.90;;;;;;5065967;28;20178;-71
2022/04/06 00:12:31;;;;;;;14.43;11.27;;;9.10;99.90;;;;;;5065263;28;20283;-69
2022/04/06 00:14:56;;;;;;;12.73;11.40;;;9.10;99.90;;;;;;5059016;28;20614;-70
2022/04/06 00:17:22;;;;;;;11.27;10.17;;;9.20;99.90;;;;;;5056034;28;20190;-71
2022/04/06 00:19:47;;;;;;;13.53;10.93;;;9.40;99.90;;;;;;5067820;28;20216;-71
2022/04/06 00:22:13;;;;;;;10.80;9.80;;;9.40;99.90;;;;;;5048843;28;20209;-68
2022/04/06 00:24:38;;;;;;;9.93;8.93;;;9.50;99.90;;;;;;5056619;28;20183;-69
2022/04/06 00:27:04;;;;;;;14.30;10.70;;;9.40;99.90;;;;;;5060074;28;20249;-67
2022/04/06 00:29:29;;;;;;;12.03;10.87;;;9.40;99.90;;;;;;5065472;28;20202;-69
2022/04/06 00:31:55;;;;;;;12.13;11.00;;;9.40;99.90;;;;;;5061402;28;20272;-67
2022/04/06 00:35:28;;;;;;;11.47;10.37;;;9.30;99.90;;;;;;5054615;28;20206;-64
2022/04/06 00:37:06;;;;;;;12.30;11.10;;;9.20;99.90;;;;;;5060213;28;20969;-62
2022/04/06 00:39:31;;;;;;;11.63;10.43;;;9.20;99.90;;;;;;5062168;28;20182;-65
2022/04/06 00:41:57;;;;;;;13.33;11.93;;;9.10;99.90;;;;;;5060941;28;20269;-64
2022/04/06 00:44:23;;;;;;;16.40;14.60;;;9.10;99.90;;;;;;5064575;28;20669;-62
2022/04/06 00:46:48;;;;;;;15.20;13.50;;;9.10;99.90;;;;;;5060147;28;20209;-63
2022/04/06 00:49:14;;;;;;;15.63;14.03;;;9.10;99.90;;;;;;5052918;28;20201;-65
2022/04/06 00:51:45;;;;;;;16.63;14.97;;;9.10;99.90;;;;;;5054913;28;20273;-61
2022/04/06 00:54:16;;;;;;;17.70;14.50;;;9.10;99.90;;;;;;5054963;28;20210;-63
2022/04/06 00:56:42;;;;;;;16.07;14.47;;;9.20;99.90;;;;;;5056892;28;20326;-64
2022/04/06 00:59:09;;;;;;;17.33;15.50;;;9.20;99.90;;;;;;5046616;28;20203;-63
2022/04/06 01:01:35;;;;;;;20.20;18.30;;;9.20;99.90;;;;;;5049442;28;20206;-62
2022/04/06 01:04:01;;;;;;;19.27;17.27;;;9.10;99.90;;;;;;5063950;28;20206;-63
2022/04/06 01:06:27;;;;;;;20.30;17.23;;;9.10;99.90;;;;;;5047088;28;20542;-62
2022/04/06 01:08:53;;;;;;;20.17;17.90;;;9.10;99.90;;;;;;5047201;28;20214;-63
2022/04/06 01:11:20;;;;;;;20.43;18.37;;;9.00;99.90;;;;;;5050479;28;20281;-62
2022/04/06 01:13:46;;;;;;;25.13;17.73;;;9.00;99.90;;;;;;5048519;28;20209;-63
2022/04/06 01:16:12;;;;;;;19.30;16.07;;;9.00;99.90;;;;;;5058028;28;20217;-63
2022/04/06 01:18:39;;;;;;;19.23;16.07;;;9.00;99.90;;;;;;5051230;28;20319;-63
2022/04/06 01:21:05;;;;;;;19.83;16.43;;;9.00;99.90;;;;;;5062193;28;20604;-63
2022/04/06 01:23:30;;;;;;;19.63;16.30;;;9.00;99.90;;;;;;5051871;28;20202;-64
2022/04/06 01:25:57;;;;;;;19.90;17.57;;;9.00;99.90;;;;;;5063320;28;20225;-63
2022/04/06 01:28:24;;;;;;;18.93;16.90;;;9.00;99.90;;;;;;5055675;28;20276;-62
2022/04/06 01:30:49;;;;;;;17.83;15.93;;;9.00;99.90;;;;;;5050776;28;20194;-63
2022/04/06 01:33:15;;;;;;;19.20;16.90;;;9.00;99.90;;;;;;5054254;28;20260;-63
2022/04/06 01:35:42;;;;;;;18.43;16.20;;;9.00;99.90;;;;;;5049551;28;20214;-63
2022/04/06 01:38:08;;;;;;;18.30;16.33;;;9.10;99.90;;;;;;5055359;28;20229;-65
2022/04/06 01:40:34;;;;;;;19.13;17.00;;;9.10;99.90;;;;;;5060778;28;20598;-64
2022/04/06 01:42:59;;;;;;;19.13;17.23;;;9.10;99.90;;;;;;5054608;28;20271;-63
2022/04/06 01:45:26;;;;;;;17.27;14.60;;;9.10;99.90;;;;;;5052820;28;20319;-64
2022/04/06 01:47:51;;;;;;;20.60;18.47;;;9.10;99.90;;;;;;5064008;28;20255;-63
2022/04/06 01:53:03;;;;;;;20.90;16.47;;;9.10;99.90;;;;;;5051544;28;20257;-65
2022/04/06 01:55:29;;;;;;;19.60;17.60;;;9.10;99.90;;;;;;5065484;28;20225;-65
2022/04/06 01:57:55;;;;;;;18.63;16.73;;;9.10;99.90;;;;;;5060215;28;20677;-69
2022/04/06 02:00:20;;;;;;;19.57;17.30;;;9.10;99.90;;;;;;5054389;28;20418;-67
2022/04/06 02:02:52;;;;;;;18.30;15.83;;;9.10;99.90;;;;;;5057148;28;20285;-70
2022/04/06 02:05:19;;;;;;;20.40;16.17;;;9.10;99.90;;;;;;5046301;28;20187;-69
2022/04/06 02:07:48;;;;;;;17.23;15.00;;;9.10;99.90;;;;;;5052273;28;20722;-69
2022/04/06 02:10:15;;;;;;;17.03;15.33;;;9.20;99.90;;;;;;5064362;28;20186;-69
2022/04/06 02:12:41;;;;;;;18.93;14.80;;;9.20;99.90;;;;;;5050855;28;20278;-68
2022/04/06 02:15:10;;;;;;;16.87;15.07;;;9.20;99.90;;;;;;5059392;28;20209;-67
2022/04/06 02:17:36;;;;;;;17.00;15.23;;;9.30;99.90;;;;;;5053139;28;20584;-68
2022/04/06 02:20:01;;;;;;;16.57;14.93;;;9.30;99.90;;;;;;5051374;28;20190;-70
2022/04/06 02:22:27;;;;;;;16.10;14.43;;;9.30;99.90;;;;;;5046573;28;20613;-71
2022/04/06 02:24:52;;;;;;;18.67;15.33;;;9.30;99.90;;;;;;5065496;28;20217;-70
2022/04/06 02:27:18;;;;;;;18.77;16.20;;;9.30;99.90;;;;;;5045312;28;20187;-68
2022/04/06 02:29:43;;;;;;;17.77;15.97;;;9.20;99.90;;;;;;5065458;28;20716;-68
2022/04/06 02:32:09;;;;;;;16.50;14.67;;;9.20;99.90;;;;;;5064532;28;20641;-69
2022/04/06 02:34:35;;;;;;;16.97;15.17;;;9.20;99.90;;;;;;5065141;28;20565;-68
2022/04/06 02:37:01;;;;;;;16.20;14.63;;;9.20;99.90;;;;;;5053756;28;20198;-68
2022/04/06 02:39:27;;;;;;;15.43;13.77;;;9.20;99.90;;;;;;5052073;28;20189;-68
2022/04/06 02:41:53;;;;;;;16.40;14.73;;;9.20;99.90;;;;;;5054971;28;20194;-70
2022/04/06 02:44:19;;;;;;;18.37;16.60;;;9.30;99.90;;;;;;5050452;28;20188;-69
2022/04/06 02:46:46;;;;;;;14.77;12.77;;;9.30;99.90;;;;;;5063199;28;20223;-69
2022/04/06 02:49:12;;;;;;;18.60;16.73;;;9.30;99.90;;;;;;5058981;28;20301;-71
2022/04/06 02:51:37;;;;;;;20.10;18.13;;;9.30;99.90;;;;;;5059849;28;20258;-71
2022/04/06 02:54:03;;;;;;;17.70;15.10;;;9.30;99.90;;;;;;5053484;28;20283;-70
2022/04/06 02:56:29;;;;;;;18.63;16.73;;;9.30;99.90;;;;;;5064876;28;20214;-63
2022/04/06 02:58:54;;;;;;;18.60;16.70;;;9.20;99.90;;;;;;5055514;28;20300;-64
2022/04/06 03:01:20;;;;;;;16.20;14.67;;;9.20;99.90;;;;;;5053218;28;20209;-64
2022/04/06 03:03:46;;;;;;;18.67;16.97;;;9.20;99.90;;;;;;5051208;28;20193;-65
2022/04/06 03:06:11;;;;;;;14.50;12.83;;;9.20;99.90;;;;;;5056186;28;20205;-65
2022/04/06 03:08:37;;;;;;;17.73;15.63;;;9.30;99.90;;;;;;5050171;28;20207;-65
2022/04/06 03:11:03;;;;;;;16.37;14.67;;;9.20;99.90;;;;;;5054717;28;20655;-63
2022/04/06 03:13:29;;;;;;;14.70;13.20;;;9.30;99.90;;;;;;5047514;28;20209;-65
2022/04/06 03:15:55;;;;;;;18.27;16.53;;;9.30;99.90;;;;;;5049573;28;20271;-64
2022/04/06 03:18:21;;;;;;;16.53;14.77;;;9.30;99.90;;;;;;5056963;28;20676;-65
2022/04/06 03:20:47;;;;;;;15.07;13.67;;;9.30;99.90;;;;;;5060792;28;20190;-65
2022/04/06 03:23:14;;;;;;;15.20;13.60;;;9.30;99.90;;;;;;5057943;28;20233;-64
2022/04/06 03:25:39;;;;;;;14.70;12.17;;;9.30;99.90;;;;;;5057364;28;20978;-65
2022/04/06 03:28:05;;;;;;;15.20;12.47;;;9.30;99.90;;;;;;5063350;28;20206;-64
2022/04/06 03:30:30;;;;;;;14.90;12.90;;;9.30;99.90;;;;;;5049375;28;20632;-65
2022/04/06 03:32:56;;;;;;;14.17;12.43;;;9.30;99.90;;;;;;5049094;28;20202;-64
2022/04/06 03:35:21;;;;;;;14.03;12.27;;;9.30;99.90;;;;;;5068034;28;20206;-65
2022/04/06 03:37:47;;;;;;;17.13;15.13;;;9.20;99.90;;;;;;5066197;28;20206;-64
2022/04/06 03:40:13;;;;;;;16.37;11.20;;;9.20;99.90;;;;;;5056137;28;20194;-64
2022/04/06 03:42:38;;;;;;;16.20;13.30;;;9.20;99.90;;;;;;5057391;28;20351;-63
2022/04/06 03:45:05;;;;;;;14.47;12.97;;;9.20;99.90;;;;;;5066316;28;20276;-62
2022/04/06 03:47:32;;;;;;;14.83;13.37;;;9.10;99.90;;;;;;5053908;28;20205;-62
2022/04/06 03:49:59;;;;;;;12.27;10.53;;;9.10;99.90;;;;;;5064982;28;20190;-62
2022/04/06 03:52:25;;;;;;;12.87;11.57;;;9.10;99.90;;;;;;5051858;28;20648;-62
2022/04/06 03:54:51;;;;;;;13.97;12.63;;;9.10;99.90;;;;;;5068108;28;20197;-63
2022/04/06 03:57:17;;;;;;;12.60;11.27;;;9.10;99.90;;;;;;5054637;28;20572;-63
2022/04/06 03:59:43;;;;;;;12.37;11.07;;;9.10;99.90;;;;;;5059043;28;20182;-64
2022/04/06 04:02:08;;;;;;;12.77;10.43;;;9.10;99.90;;;;;;5065575;28;20198;-63
2022/04/06 04:04:33;;;;;;;14.37;11.50;;;9.10;99.90;;;;;;5059121;28;20185;-64
2022/04/06 04:06:59;;;;;;;11.13;9.27;;;9.10;99.90;;;;;;5055367;28;20221;-64
2022/04/06 04:09:25;;;;;;;11.70;10.50;;;9.10;99.90;;;;;;5051209;28;20194;-64
2022/04/06 04:11:51;;;;;;;12.07;10.77;;;9.20;99.90;;;;;;5050067;28;20209;-64
2022/04/06 04:14:16;;;;;;;11.80;10.57;;;9.10;99.90;;;;;;5055107;28;20193;-64
2022/04/06 04:16:41;;;;;;;14.53;10.27;;;9.10;99.90;;;;;;5063131;28;20210;-64
2022/04/06 04:19:07;;;;;;;11.40;10.23;;;9.10;99.90;;;;;;5056021;28;20212;-64
2022/04/06 04:21:33;;;;;;;14.63;10.27;;;9.10;99.90;;;;;;5063855;28;20202;-64
2022/04/06 04:24:03;;;;;;;17.13;10.43;;;9.10;99.90;;;;;;5050778;28;20206;-64
2022/04/06 04:26:29;;;;;;;11.20;9.90;;;9.10;99.90;;;;;;5064713;28;20232;-63
2022/04/06 04:28:55;;;;;;;14.60;10.43;;;9.10;99.90;;;;;;5053628;28;20697;-65
2022/04/06 04:31:20;;;;;;;15.87;12.80;;;9.10;99.90;;;;;;5055985;28;20198;-63
2022/04/06 04:33:46;;;;;;;13.97;11.80;;;9.10;99.90;;;;;;5049340;28;20255;-64
2022/04/06 04:36:12;;;;;;;12.60;10.83;;;9.10;99.90;;;;;;5054373;28;20497;-64
2022/04/06 04:38:37;;;;;;;15.03;12.73;;;9.10;99.90;;;;;;5052031;28;20725;-64
2022/04/06 04:41:08;;;;;;;14.13;11.17;;;9.10;99.90;;;;;;5059662;28;20213;-64
2022/04/06 04:43:34;;;;;;;12.80;11.30;;;9.10;99.90;;;;;;5054273;28;20221;-64
2022/04/06 04:46:00;;;;;;;14.57;12.03;;;9.10;99.90;;;;;;5056258;28;20732;-66
2022/04/06 04:48:26;;;;;;;19.37;12.00;;;9.10;99.90;;;;;;5046251;28;20309;-66
2022/04/06 04:50:51;;;;;;;18.23;11.67;;;9.10;99.90;;;;;;5056503;28;20217;-64
2022/04/06 04:53:17;;;;;;;14.43;11.20;;;9.10;99.90;;;;;;5052236;28;20207;-64
2022/04/06 04:55:43;;;;;;;15.00;11.90;;;9.10;99.90;;;;;;5050800;28;20272;-64
2022/04/06 04:58:08;;;;;;;15.63;13.20;;;9.10;99.90;;;;;;5056838;28;20202;-63
2022/04/06 05:00:34;;;;;;;14.73;12.50;;;9.10;99.90;;;;;;5066710;28;20278;-64
2022/04/06 05:02:59;;;;;;;15.13;12.20;;;9.10;99.90;;;;;;5055592;28;20198;-64
2022/04/06 05:05:24;;;;;;;14.00;12.10;;;9.10;99.90;;;;;;5046988;28;20205;-64
2022/04/06 05:07:51;;;;;;;14.90;11.83;;;9.10;99.90;;;;;;5060547;28;20731;-63
2022/04/06 05:10:16;;;;;;;15.20;12.63;;;9.10;99.90;;;;;;5060773;28;20202;-63
2022/04/06 05:12:43;;;;;;;14.17;12.23;;;9.10;99.90;;;;;;5056054;28;20210;-63
2022/04/06 05:15:10;;;;;;;14.20;12.17;;;9.10;99.90;;;;;;5066069;28;20251;-63
2022/04/06 05:17:35;;;;;;;16.40;14.33;;;9.10;99.90;;;;;;5054609;28;20201;-64
2022/04/06 05:20:01;;;;;;;13.90;12.47;;;9.10;99.90;;;;;;5051886;28;20182;-64
2022/04/06 05:22:27;;;;;;;17.73;14.20;;;9.20;99.90;;;;;;5053689;28;20205;-64
2022/04/06 05:24:53;;;;;;;12.63;11.37;;;9.20;99.90;;;;;;5053705;28;20284;-64
2022/04/06 05:27:19;;;;;;;14.80;12.77;;;9.20;99.90;;;;;;5064131;28;20210;-65
2022/04/06 05:29:45;;;;;;;15.97;13.20;;;9.20;99.90;;;;;;5066388;28;20202;-63
2022/04/06 05:32:11;;;;;;;12.97;10.90;;;9.20;99.90;;;;;;5059947;28;20214;-65
2022/04/06 05:34:36;;;;;;;13.40;12.00;;;9.20;99.90;;;;;;5058424;28;20182;-64
2022/04/06 05:37:03;;;;;;;15.07;11.33;;;9.20;99.90;;;;;;5057741;28;20571;-64
2022/04/06 05:39:28;;;;;;;18.63;12.67;;;9.20;99.90;;;;;;5054903;28;20267;-64
2022/04/06 05:41:54;;;;;;;15.90;12.87;;;9.30;99.90;;;;;;5063593;28;20240;-65
2022/04/06 05:44:19;;;;;;;14.17;12.60;;;9.30;99.90;;;;;;5053922;28;20183;-64
2022/04/06 05:46:45;;;;;;;12.50;11.10;;;9.40;99.90;;;;;;5047765;28;20211;-64
2022/04/06 05:49:10;;;;;;;23.50;13.37;;;9.30;99.90;;;;;;5052560;28;20178;-64
2022/04/06 05:51:36;;;;;;;14.77;12.70;;;9.30;99.90;;;;;;5064690;28;20230;-64
2022/04/06 05:54:02;;;;;;;14.90;11.93;;;9.30;99.90;;;;;;5063768;28;20281;-64
2022/04/06 05:56:29;;;;;;;15.43;13.23;;;9.30;99.90;;;;;;5054273;28;20218;-64
2022/04/06 05:58:54;;;;;;;16.63;13.07;;;9.30;99.90;;;;;;5052813;28;20605;-63
2022/04/06 06:01:20;;;;;;;14.33;11.47;;;9.30;99.90;;;;;;5054617;28;20301;-63
2022/04/06 06:03:45;;;;;;;16.03;12.33;;;9.30;99.90;;;;;;5062679;28;20551;-63
2022/04/06 06:06:11;;;;;;;18.63;13.03;;;9.30;99.90;;;;;;5059076;28;20290;-63
2022/04/06 06:08:36;;;;;;;16.63;12.70;;;9.30;99.90;;;;;;5057482;28;20224;-63
2022/04/06 06:11:03;;;;;;;19.47;12.70;;;9.30;99.90;;;;;;5064919;28;20194;-63
2022/04/06 06:13:29;;;;;;;18.50;13.20;;;9.30;99.90;;;;;;5048822;28;20293;-64
2022/04/06 06:15:55;;;;;;;16.23;14.53;;;9.30;99.90;;;;;;5046237;28;20306;-64
2022/04/06 06:18:20;;;;;;;21.07;14.07;;;9.30;99.90;;;;;;5057386;28;20285;-63
2022/04/06 06:20:46;;;;;;;19.17;13.90;;;9.30;99.90;;;;;;5054303;28;20184;-63
2022/04/06 06:23:12;;;;;;;19.63;15.03;;;9.30;99.90;;;;;;5062767;28;20206;-63
2022/04/06 06:25:37;;;;;;;21.73;15.57;;;9.30;99.90;;;;;;5064862;28;20217;-64
2022/04/06 06:28:03;;;;;;;22.60;15.47;;;9.20;99.90;;;;;;5063030;28;20690;-64
2022/04/06 06:30:28;;;;;;;21.83;18.47;;;9.20;99.90;;;;;;5058842;28;20826;-64
2022/04/06 06:32:54;;;;;;;24.83;18.00;;;9.20;99.90;;;;;;5053294;28;20210;-64
2022/04/06 06:35:20;;;;;;;21.43;17.03;;;9.30;99.90;;;;;;5061473;28;20218;-63
2022/04/06 06:37:51;;;;;;;26.10;19.43;;;9.30;99.90;;;;;;5051922;28;20214;-64
2022/04/06 06:40:18;;;;;;;25.03;19.60;;;9.40;99.90;;;;;;5060842;28;20248;-66
2022/04/06 06:42:43;;;;;;;25.70;20.07;;;9.40;99.90;;;;;;5058753;28;20221;-64
2022/04/06 06:45:10;;;;;;;22.67;17.13;;;9.50;99.90;;;;;;5062154;28;20655;-63
2022/04/06 06:47:35;;;;;;;23.30;17.30;;;9.50;99.90;;;;;;5055240;28;20700;-63
2022/04/06 06:50:01;;;;;;;20.77;18.17;;;9.50;99.90;;;;;;5058470;28;20193;-63
2022/04/06 06:52:27;;;;;;;23.37;16.93;;;9.60;99.90;;;;;;5054404;28;20239;-63
2022/04/06 06:54:52;;;;;;;23.80;15.77;;;9.60;99.90;;;;;;5044557;28;20880;-63
2022/04/06 06:57:18;;;;;;;22.63;16.40;;;9.60;99.90;;;;;;5054589;28;20188;-62
2022/04/06 06:59:43;;;;;;;24.17;18.20;;;9.60;99.90;;;;;;5060438;28;20186;-63
2022/04/06 07:02:09;;;;;;;22.23;17.93;;;9.70;99.90;;;;;;5062614;28;20281;-63
2022/04/06 07:04:35;;;;;;;25.57;19.77;;;9.80;99.90;;;;;;5068945;28;20541;-63
2022/04/06 07:07:01;;;;;;;26.37;19.70;;;9.80;99.90;;;;;;5058724;28;20201;-63
2022/04/06 07:09:26;;;;;;;26.97;18.23;;;9.80;99.90;;;;;;5057552;28;20186;-63
2022/04/06 07:11:52;;;;;;;22.63;19.63;;;9.80;99.90;;;;;;5051209;28;20213;-63
2022/04/06 07:14:19;;;;;;;25.47;19.73;;;9.90;99.90;;;;;;5056888;28;20262;-62
2022/04/06 07:16:44;;;;;;;28.23;19.30;;;9.80;99.90;;;;;;5063255;28;20238;-63
2022/04/06 07:19:10;;;;;;;20.93;17.80;;;9.80;99.90;;;;;;5060527;28;20283;-63
2022/04/06 07:21:35;;;;;;;29.37;18.90;;;9.90;99.90;;;;;;5050245;28;20198;-62
2022/04/06 07:24:03;;;;;;;23.70;18.77;;;9.90;99.90;;;;;;5053849;28;20211;-62
2022/04/06 07:26:29;;;;;;;22.93;17.00;;;10.00;99.90;;;;;;5059152;28;20218;-62
2022/04/06 07:28:54;;;;;;;23.83;18.97;;;10.10;99.90;;;;;;5057913;28;20207;-62
2022/04/06 07:31:20;;;;;;;20.73;17.07;;;10.10;99.90;;;;;;5055348;28;20764;-67
2022/04/06 07:33:45;;;;;;;24.17;18.30;;;10.10;99.90;;;;;;5065796;28;20202;-64
2022/04/06 07:36:11;;;;;;;23.57;17.50;;;10.10;99.90;;;;;;5067998;28;20729;-64
2022/04/06 07:38:37;;;;;;;23.77;16.70;;;10.20;99.90;;;;;;5057820;28;20203;-66
2022/04/06 07:41:02;;;;;;;21.40;16.80;;;10.20;99.90;;;;;;5066811;28;20178;-62
2022/04/06 07:43:28;;;;;;;21.80;16.10;;;10.20;99.90;;;;;;5059677;28;20199;-62
2022/04/06 07:45:53;;;;;;;21.93;15.20;;;10.20;99.90;;;;;;5057257;28;20190;-63
2022/04/06 07:48:19;;;;;;;26.30;15.80;;;10.30;99.90;;;;;;5060887;28;20203;-64
2022/04/06 07:50:44;;;;;;;21.67;15.20;;;10.40;99.90;;;;;;5056992;28;20262;-65
2022/04/06 07:53:11;;;;;;;17.33;15.50;;;10.50;99.90;;;;;;5054169;28;20209;-64
2022/04/06 07:55:37;;;;;;;16.83;15.10;;;10.60;99.90;;;;;;5064463;28;20260;-64
2022/04/06 07:58:03;;;;;;;20.73;13.77;;;10.70;99.90;;;;;;5053830;28;20195;-65
2022/04/06 08:00:33;;;;;;;22.23;14.53;;;10.70;99.90;;;;;;5058168;28;20195;-65
2022/04/06 08:02:59;;;;;;;19.63;15.10;;;10.80;99.90;;;;;;5065527;28;20683;-65
2022/04/06 08:05:25;;;;;;;20.37;13.20;;;10.90;99.90;;;;;;5064631;28;20190;-63
2022/04/06 08:07:53;;;;;;;15.37;12.50;;;11.00;99.90;;;;;;5055122;28;20211;-65
2022/04/06 08:10:19;;;;;;;16.10;12.83;;;11.00;99.90;;;;;;5063937;28;20199;-64
2022/04/06 08:12:46;;;;;;;14.37;12.73;;;11.10;99.90;;;;;;5065602;28;20668;-65
2022/04/06 08:15:12;;;;;;;14.90;13.03;;;11.20;99.90;;;;;;5064335;28;20576;-64
2022/04/06 08:17:40;;;;;;;17.10;12.47;;;11.20;99.90;;;;;;5057850;28;20686;-64
2022/04/06 08:20:11;;;;;;;13.43;11.03;;;11.30;99.90;;;;;;5053757;28;20298;-64
2022/04/06 08:22:38;;;;;;;15.30;10.90;;;11.30;99.90;;;;;;5055829;28;20203;-64
2022/04/06 08:25:03;;;;;;;14.83;11.17;;;11.40;99.90;;;;;;5065989;28;20212;-63
2022/04/06 08:27:30;;;;;;;16.87;10.57;;;11.50;99.90;;;;;;5056117;28;20203;-64
2022/04/06 08:29:55;;;;;;;12.20;10.93;;;11.50;99.90;;;;;;5050352;28;20665;-64
2022/04/06 08:32:21;;;;;;;14.83;10.87;;;11.50;99.90;;;;;;5053758;28;20195;-65
2022/04/06 08:34:47;;;;;;;12.63;10.13;;;11.50;99.90;;;;;;5055869;28;20211;-66
2022/04/06 08:37:12;;;;;;;17.10;12.20;;;11.50;99.90;;;;;;5053185;28;20284;-65
2022/04/06 08:39:38;;;;;;;15.67;10.00;;;11.40;99.90;;;;;;5066815;28;20635;-65
2022/04/06 08:42:05;;;;;;;15.27;8.87;;;11.40;99.90;;;;;;5056938;28;20288;-65
2022/04/06 08:44:30;;;;;;;12.97;9.63;;;11.30;99.90;;;;;;5060458;28;20264;-63
2022/04/06 08:47:02;;;;;;;11.77;8.40;;;11.30;99.90;;;;;;5061258;28;20237;-64
2022/04/06 08:49:28;;;;;;;15.33;9.50;;;11.20;99.90;;;;;;5047817;28;20554;-64
2022/04/06 08:51:55;;;;;;;13.87;9.53;;;11.40;99.90;;;;;;5056575;28;20254;-64
2022/04/06 08:54:22;;;;;;;11.37;8.03;;;11.40;99.90;;;;;;5054189;28;20182;-63
2022/04/06 08:56:47;;;;;;;15.03;10.30;;;11.30;99.90;;;;;;5055429;28;20210;-65
2022/04/06 08:59:13;;;;;;;10.27;8.40;;;11.30;99.90;;;;;;5057006;28;20687;-64
2022/04/06 09:01:38;;;;;;;14.20;9.27;;;11.40;99.90;;;;;;5056442;28;20248;-63
2022/04/06 09:04:04;;;;;;;10.20;8.00;;;11.40;99.90;;;;;;5064078;28;20229;-64
2022/04/06 09:06:39;;;;;;;8.87;7.93;;;11.50;99.90;;;;;;5063231;28;20214;-67
2022/04/06 09:09:05;;;;;;;17.97;8.87;;;11.60;99.90;;;;;;5064176;28;20195;-67
2022/04/06 09:11:41;;;;;;;11.23;7.93;;;11.70;99.90;;;;;;5056394;28;20215;-67
2022/04/06 09:14:06;;;;;;;13.60;8.13;;;11.70;99.90;;;;;;5055167;28;20603;-66
2022/04/06 09:16:32;;;;;;;14.10;8.97;;;11.80;99.90;;;;;;5052102;28;20224;-66
2022/04/06 09:19:10;;;;;;;11.93;7.87;;;11.70;99.90;;;;;;5054495;28;20243;-67
2022/04/06 09:21:43;;;;;;;11.27;8.77;;;11.80;99.90;;;;;;5060739;28;20296;-66
2022/04/06 09:24:19;;;;;;;9.73;7.47;;;11.90;99.90;;;;;;5064492;28;20204;-66
2022/04/06 09:26:59;;;;;;;11.33;8.53;;;12.00;99.90;;;;;;5054796;28;20235;-66
2022/04/06 09:29:24;;;;;;;11.37;7.97;;;12.00;99.90;;;;;;5054893;28;20190;-70
2022/04/06 09:31:51;;;;;;;10.70;7.73;;;12.10;99.90;;;;;;5060876;28;20193;-72
2022/04/06 09:34:21;;;;;;;11.23;9.03;;;12.10;99.90;;;;;;5057611;28;20180;-69
2022/04/06 09:36:46;;;;;;;9.13;7.67;;;12.30;99.90;;;;;;5052920;28;20251;-71
2022/04/06 09:39:12;;;;;;;10.60;8.03;;;12.30;99.90;;;;;;5055923;28;20534;-71
2022/04/06 09:41:59;;;;;;;12.50;8.13;;;12.10;99.90;;;;;;5059438;28;20274;-69
2022/04/06 09:50:11;;;;;;;12.67;8.27;;;12.10;99.90;;;;;;5066108;28;20619;-70
2022/04/06 09:52:37;;;;;;;11.63;8.63;;;12.10;99.90;;;;;;5011015;28;20693;-72
2022/04/06 09:55:06;;;;;;;11.43;8.80;;;12.00;99.90;;;;;;5013367;28;20202;-70
2022/04/06 09:57:40;;;;;;;8.93;8.03;;;12.10;99.90;;;;;;5016485;28;20229;-71
2022/04/06 10:00:07;;;;;;;10.60;9.13;;;12.10;99.90;;;;;;5018905;28;20205;-73
2022/04/06 10:02:34;;;;;;;10.63;7.97;;;12.10;99.90;;;;;;5004576;28;20195;-72
2022/04/06 10:05:02;;;;;;;12.70;9.63;;;12.20;99.90;;;;;;5024322;28;20850;-70
2022/04/06 10:07:28;;;;;;;12.43;8.40;;;12.30;99.90;;;;;;5010884;28;20288;-73
2022/04/06 10:09:55;;;;;;;10.47;7.40;;;12.20;99.90;;;;;;5025307;28;20316;-74
2022/04/06 10:12:21;;;;;;;9.63;8.13;;;12.30;99.90;;;;;;5012467;28;20205;-71
2022/04/06 10:14:47;;;;;;;13.87;8.33;;;12.40;99.90;;;;;;5009560;28;20204;-74
2022/04/06 10:17:13;;;;;;;16.30;8.97;;;12.40;99.90;;;;;;5014168;28;20209;-75
2022/04/06 10:19:46;;;;;;;14.23;8.53;;;12.60;99.90;;;;;;5006106;28;20233;-72
2022/04/06 10:22:22;;;;;;;11.70;10.17;;;12.50;99.90;;;;;;5023722;28;20221;-71
2022/04/06 10:25:03;;;;;;;10.80;8.77;;;12.40;99.90;;;;;;5021369;28;20188;-71
2022/04/06 10:27:34;;;;;;;10.33;8.43;;;12.40;99.90;;;;;;5021695;28;20201;-68
2022/04/06 10:30:06;;;;;;;11.83;9.30;;;12.50;99.90;;;;;;5020344;28;20298;-73
2022/04/06 10:32:42;;;;;;;14.87;9.87;;;12.60;99.90;;;;;;5013016;28;20258;-71
2022/04/06 10:35:26;;;;;;;9.47;7.73;;;12.50;99.90;;;;;;5024722;28;20284;-71
2022/04/06 10:38:00;;;;;;;11.20;8.27;;;12.50;99.90;;;;;;5008933;28;20187;-75
2022/04/06 10:40:31;;;;;;;12.27;7.83;;;12.40;99.90;;;;;;5023266;28;20236;-70
2022/04/06 10:42:57;;;;;;;10.97;8.57;;;12.50;99.90;;;;;;5013362;28;20194;-69
2022/04/06 10:45:28;;;;;;;12.53;7.67;;;12.40;99.90;;;;;;5007281;28;20352;-66
2022/04/06 10:48:14;;;;;;;10.00;7.17;;;12.50;99.90;;;;;;5021898;28;20187;-66
2022/04/06 10:50:41;;;;;;;10.27;6.93;;;12.70;99.90;;;;;;5026097;28;20302;-66
2022/04/06 10:53:18;;;;;;;9.70;8.20;;;12.80;99.90;;;;;;5052265;28;20684;-65
2022/04/06 10:56:11;;;;;;;12.00;7.37;;;13.10;99.90;;;;;;5056058;28;21057;-66
2022/04/06 10:58:55;;;;;;;9.20;7.17;;;12.90;99.90;;;;;;5055489;28;20543;-66
2022/04/06 11:01:32;;;;;;;10.27;7.40;;;12.90;99.90;;;;;;5055020;28;20261;-66
2022/04/06 11:04:18;;;;;;;9.80;6.80;;;12.80;99.90;;;;;;5057196;28;20271;-66
2022/04/06 11:07:08;;;;;;;13.07;7.90;;;12.70;99.90;;;;;;5055676;28;20204;-66
2022/04/06 11:12:20;;;;;;;9.53;6.90;;;12.50;99.90;;;;;;5061021;28;20323;-68
2022/04/06 11:14:58;;;;;;;11.10;8.97;;;12.50;99.90;;;;;;5047923;28;20251;-68
2022/04/06 11:17:34;;;;;;;9.50;6.97;;;12.30;99.90;;;;;;5052863;28;20205;-67
2022/04/06 11:20:04;;;;;;;12.57;6.93;;;12.30;99.90;;;;;;5057835;28;20337;-68
2022/04/06 11:22:30;;;;;;;11.17;8.77;;;12.30;99.90;;;;;;5049504;28;20670;-67
2022/04/06 11:24:56;;;;;;;9.87;8.07;;;12.30;99.90;;;;;;5061582;28;20321;-66
2022/04/06 11:27:48;;;;;;;9.87;7.40;;;12.20;99.90;;;;;;5051981;28;20217;-66
2022/04/06 11:30:20;;;;;;;9.30;7.90;;;12.10;99.90;;;;;;5060196;28;20592;-65
2022/04/06 11:32:53;;;;;;;14.73;7.47;;;12.10;99.90;;;;;;5051854;28;20232;-66
2022/04/06 11:35:20;;;;;;;13.83;7.93;;;12.10;99.90;;;;;;5061454;28;20198;-64
2022/04/06 11:37:49;;;;;;;8.83;7.17;;;12.10;99.90;;;;;;5049803;28;20188;-65
2022/04/06 11:40:17;;;;;;;12.93;7.93;;;12.10;99.90;;;;;;5059174;28;20181;-65
2022/04/06 11:42:48;;;;;;;8.37;7.07;;;12.00;99.90;;;;;;5055905;28;20203;-66
2022/04/06 11:45:22;;;;;;;9.33;7.23;;;12.00;99.90;;;;;;5054934;28;20184;-68
2022/04/06 11:48:02;;;;;;;13.93;7.87;;;12.00;99.90;;;;;;5052523;28;20613;-67
2022/04/06 11:50:33;;;;;;;11.80;7.30;;;12.00;99.90;;;;;;5065220;28;20215;-68
2022/04/06 11:53:08;;;;;;;10.67;7.50;;;12.00;99.90;;;;;;5060189;28;20292;-68
2022/04/06 11:55:50;;;;;;;10.70;8.10;;;12.00;99.90;;;;;;5054436;28;20728;-66
2022/04/06 11:58:36;;;;;;;8.93;8.03;;;12.00;99.90;;;;;;5056874;28;20196;-68
2022/04/06 12:01:07;;;;;;;13.50;7.57;;;11.90;99.90;;;;;;5066585;28;20238;-69
2022/04/06 12:03:43;;;;;;;12.97;8.50;;;11.90;99.90;;;;;;5056767;28;20203;-66
2022/04/06 12:06:10;;;;;;;12.60;8.47;;;11.80;99.90;;;;;;5064850;28;20223;-66
2022/04/06 12:08:37;;;;;;;13.63;8.67;;;11.70;99.90;;;;;;5065957;28;20207;-66
2022/04/06 12:11:03;;;;;;;11.57;7.23;;;11.70;99.90;;;;;;5067613;28;20581;-68
2022/04/06 12:13:31;;;;;;;11.40;7.97;;;11.60;99.90;;;;;;5050797;28;20303;-65
2022/04/06 12:15:57;;;;;;;12.00;7.47;;;11.60;99.90;;;;;;5047476;28;20304;-66
2022/04/06 12:18:24;;;;;;;9.17;6.70;;;11.60;99.90;;;;;;5060168;28;20204;-65
2022/04/06 12:20:50;;;;;;;12.13;7.97;;;11.60;99.90;;;;;;5067903;28;20236;-66
2022/04/06 12:23:18;;;;;;;9.37;7.17;;;11.60;99.90;;;;;;5052137;28;20205;-67
2022/04/06 12:25:44;;;;;;;10.60;7.90;;;11.60;99.90;;;;;;5046989;28;20238;-67
2022/04/06 12:28:12;;;;;;;11.60;8.27;;;11.60;99.90;;;;;;5058024;28;20238;-68
2022/04/06 12:30:57;;;;;;;9.60;7.47;;;11.60;99.90;;;;;;5067213;28;20192;-68
2022/04/06 12:33:48;;;;;;;12.33;7.37;;;11.60;99.90;;;;;;5051311;28;20299;-67
2022/04/06 12:36:22;;;;;;;11.40;7.83;;;11.60;99.90;;;;;;5047575;28;20324;-67
2022/04/06 12:39:08;;;;;;;10.30;7.83;;;11.50;99.90;;;;;;5052312;28;20212;-77
2022/04/06 12:41:35;;;;;;;10.50;7.53;;;11.60;99.90;;;;;;5065301;28;20891;-68
2022/04/06 12:44:06;;;;;;;12.63;8.13;;;11.60;99.90;;;;;;5054173;28;20192;-66
2022/04/06 12:46:40;;;;;;;7.37;6.67;;;11.60;99.90;;;;;;5064548;28;20199;-68
2022/04/06 12:49:26;;;;;;;12.70;7.00;;;11.60;99.90;;;;;;5058060;28;20600;-67